sensor_id;sensor_type;location;lat;lon;timestamp;pressure;altitude;pressure_sealevel;temperature;humidity
71126;BME280;58785;55.566;38.058;2023-02-13T00:00:16;100618.69;;;-4.73;69.95
71126;BME280;58785;55.566;38.058;2023-02-13T00:02:41;100616.13;;;-4.74;69.99
71126;BME280;58785;55.566;38.058;2023-02-13T00:05:07;100616.13;;;-4.74;70.34
71126;BME280;58785;55.566;38.058;2023-02-13T00:07:33;100613.53;;;-4.74;70.51
71126;BME280;58785;55.566;38.058;2023-02-13T00:09:58;100607.50;;;-4.76;70.34
71126;BME280;58785;55.566;38.058;2023-02-13T00:12:24;100607.56;;;-4.78;70.18
71126;BME280;58785;55.566;38.058;2023-02-13T00:14:50;100598.09;;;-4.82;70.45
71126;BME280;58785;55.566;38.058;2023-02-13T00:17:15;100592.88;;;-4.80;70.49
71126;BME280;58785;55.566;38.058;2023-02-13T00:19:41;100596.41;;;-4.83;70.55
71126;BME280;58785;55.566;38.058;2023-02-13T00:22:06;100571.47;;;-4.92;70.11
71126;BME280;58785;55.566;38.058;2023-02-13T00:24:32;100575.78;;;-4.89;70.35
71126;BME280;58785;55.566;38.058;2023-02-13T00:26:58;100572.31;;;-4.89;70.07
71126;BME280;58785;55.566;38.058;2023-02-13T00:29:24;100558.56;;;-4.95;70.61
71126;BME280;58785;55.566;38.058;2023-02-13T00:31:49;100567.88;;;-4.86;70.08
71126;BME280;58785;55.566;38.058;2023-02-13T00:34:15;100565.31;;;-4.87;70.24
71126;BME280;58785;55.566;38.058;2023-02-13T00:36:40;100542.16;;;-4.97;70.33
71126;BME280;58785;55.566;38.058;2023-02-13T00:39:06;100552.22;;;-4.84;70.11
71126;BME280;58785;55.566;38.058;2023-02-13T00:41:32;100541.78;;;-4.83;70.53
71126;BME280;58785;55.566;38.058;2023-02-13T00:43:58;100536.44;;;-4.77;70.06
71126;BME280;58785;55.566;38.058;2023-02-13T00:46:23;100534.63;;;-4.75;70.32
71126;BME280;58785;55.566;38.058;2023-02-13T00:48:49;100530.34;;;-4.76;69.75
71126;BME280;58785;55.566;38.058;2023-02-13T00:51:14;100519.16;;;-4.79;70.25
71126;BME280;58785;55.566;38.058;2023-02-13T00:53:40;100519.78;;;-4.71;70.12
71126;BME280;58785;55.566;38.058;2023-02-13T00:56:06;100532.00;;;-4.73;70.28
71126;BME280;58785;55.566;38.058;2023-02-13T00:58:32;100525.97;;;-4.75;69.72
71126;BME280;58785;55.566;38.058;2023-02-13T01:00:58;100518.28;;;-4.78;69.71
71126;BME280;58785;55.566;38.058;2023-02-13T01:03:24;100516.28;;;-4.69;69.71
71126;BME280;58785;55.566;38.058;2023-02-13T01:05:50;100517.03;;;-4.65;69.31
71126;BME280;58785;55.566;38.058;2023-02-13T01:08:19;100517.72;;;-4.58;69.50
71126;BME280;58785;55.566;38.058;2023-02-13T01:10:46;100505.53;;;-4.56;69.00
71126;BME280;58785;55.566;38.058;2023-02-13T01:13:14;100511.53;;;-4.54;69.25
71126;BME280;58785;55.566;38.058;2023-02-13T01:15:40;100504.56;;;-4.54;69.36
71126;BME280;58785;55.566;38.058;2023-02-13T01:18:06;100496.88;;;-4.57;69.44
71126;BME280;58785;55.566;38.058;2023-02-13T01:20:32;100500.13;;;-4.49;69.50
71126;BME280;58785;55.566;38.058;2023-02-13T01:22:57;100499.13;;;-4.45;69.26
71126;BME280;58785;55.566;38.058;2023-02-13T01:25:23;100488.00;;;-4.50;69.72
71126;BME280;58785;55.566;38.058;2023-02-13T01:27:49;100502.34;;;-4.37;69.07
71126;BME280;58785;55.566;38.058;2023-02-13T01:30:16;100498.00;;;-4.36;68.97
71126;BME280;58785;55.566;38.058;2023-02-13T01:32:43;100493.81;;;-4.40;68.66
71126;BME280;58785;55.566;38.058;2023-02-13T01:35:10;100499.91;;;-4.43;69.26
71126;BME280;58785;55.566;38.058;2023-02-13T01:37:36;100480.94;;;-4.46;69.05
71126;BME280;58785;55.566;38.058;2023-02-13T01:40:04;100475.75;;;-4.46;69.22
71126;BME280;58785;55.566;38.058;2023-02-13T01:42:32;100458.63;;;-4.55;69.20
71126;BME280;58785;55.566;38.058;2023-02-13T01:45:50;100468.84;;;-4.47;69.57
71126;BME280;58785;55.566;38.058;2023-02-13T01:47:59;100466.28;;;-4.49;69.24
71126;BME280;58785;55.566;38.058;2023-02-13T01:50:41;100452.53;;;-4.54;69.81
71126;BME280;58785;55.566;38.058;2023-02-13T01:53:35;100449.88;;;-4.51;69.50
71126;BME280;58785;55.566;38.058;2023-02-13T01:56:43;100447.13;;;-4.46;69.44
71126;BME280;58785;55.566;38.058;2023-02-13T01:59:10;100429.75;;;-4.46;69.11
71126;BME280;58785;55.566;38.058;2023-02-13T02:01:37;100443.41;;;-4.38;68.87
71126;BME280;58785;55.566;38.058;2023-02-13T02:06:35;100410.22;;;-4.31;68.83
71126;BME280;58785;55.566;38.058;2023-02-13T02:09:06;100428.94;;;-4.18;69.09
71126;BME280;58785;55.566;38.058;2023-02-13T02:11:44;100418.56;;;-4.20;68.33
71126;BME280;58785;55.566;38.058;2023-02-13T02:14:11;100416.03;;;-4.23;68.67
71126;BME280;58785;55.566;38.058;2023-02-13T02:16:57;100404.31;;;-4.36;68.84
71126;BME280;58785;55.566;38.058;2023-02-13T02:20:19;100417.16;;;-4.31;68.40
71126;BME280;58785;55.566;38.058;2023-02-13T02:22:53;100416.31;;;-4.32;69.23
71126;BME280;58785;55.566;38.058;2023-02-13T02:28:14;100403.47;;;-4.37;69.25
71126;BME280;58785;55.566;38.058;2023-02-13T02:33:48;100396.44;;;-4.35;69.03
71126;BME280;58785;55.566;38.058;2023-02-13T02:42:47;100368.44;;;-4.26;69.40
71126;BME280;58785;55.566;38.058;2023-02-13T02:45:22;100368.38;;;-4.25;68.92
71126;BME280;58785;55.566;38.058;2023-02-13T02:47:55;100373.47;;;-4.20;68.50
71126;BME280;58785;55.566;38.058;2023-02-13T02:53:17;100351.63;;;-4.16;68.90
71126;BME280;58785;55.566;38.058;2023-02-13T02:58:41;100360.09;;;-4.10;68.36
71126;BME280;58785;55.566;38.058;2023-02-13T03:01:28;100356.59;;;-4.09;68.77
71126;BME280;58785;55.566;38.058;2023-02-13T03:04:37;100352.03;;;-4.02;69.15
71126;BME280;58785;55.566;38.058;2023-02-13T03:07:23;100346.00;;;-4.04;68.80
71126;BME280;58785;55.566;38.058;2023-02-13T03:09:52;100332.19;;;-4.06;69.31
71126;BME280;58785;55.566;38.058;2023-02-13T03:13:00;100332.31;;;-4.09;69.18
71126;BME280;58785;55.566;38.058;2023-02-13T03:15:51;100321.06;;;-4.11;69.35
71126;BME280;58785;55.566;38.058;2023-02-13T03:18:42;100325.25;;;-4.06;69.11
71126;BME280;58785;55.566;38.058;2023-02-13T03:21:49;100341.53;;;-3.99;68.80
71126;BME280;58785;55.566;38.058;2023-02-13T03:30:39;100323.72;;;-3.86;68.47
71126;BME280;58785;55.566;38.058;2023-02-13T03:41:39;100310.72;;;-3.86;69.27
71126;BME280;58785;55.566;38.058;2023-02-13T03:44:15;100314.94;;;-3.84;68.80
71126;BME280;58785;55.566;38.058;2023-02-13T03:46:48;100304.34;;;-3.78;69.23
71126;BME280;58785;55.566;38.058;2023-02-13T03:49:36;100296.22;;;-3.68;68.93
71126;BME280;58785;55.566;38.058;2023-02-13T03:55:21;100301.19;;;-3.62;68.46
71126;BME280;58785;55.566;38.058;2023-02-13T03:58:30;100284.63;;;-3.60;69.19
71126;BME280;58785;55.566;38.058;2023-02-13T04:01:18;100285.47;;;-3.59;68.79
71126;BME280;58785;55.566;38.058;2023-02-13T04:06:37;100278.69;;;-3.65;68.84
71126;BME280;58785;55.566;38.058;2023-02-13T04:09:03;100280.47;;;-3.65;69.12
71126;BME280;58785;55.566;38.058;2023-02-13T04:11:39;100277.59;;;-3.58;68.73
71126;BME280;58785;55.566;38.058;2023-02-13T04:14:37;100279.22;;;-3.55;68.92
71126;BME280;58785;55.566;38.058;2023-02-13T04:17:05;100283.66;;;-3.57;68.86
71126;BME280;58785;55.566;38.058;2023-02-13T04:19:32;100275.88;;;-3.59;69.25
71126;BME280;58785;55.566;38.058;2023-02-13T04:21:59;100263.72;;;-3.58;69.18
71126;BME280;58785;55.566;38.058;2023-02-13T04:24:26;100270.56;;;-3.56;69.29
71126;BME280;58785;55.566;38.058;2023-02-13T04:26:53;100265.06;;;-3.48;69.04
71126;BME280;58785;55.566;38.058;2023-02-13T04:29:22;100263.13;;;-3.43;69.44
71126;BME280;58785;55.566;38.058;2023-02-13T04:31:48;100261.31;;;-3.41;69.14
71126;BME280;58785;55.566;38.058;2023-02-13T04:34:14;100246.84;;;-3.48;69.35
71126;BME280;58785;55.566;38.058;2023-02-13T04:36:40;100257.00;;;-3.40;69.59
71126;BME280;58785;55.566;38.058;2023-02-13T04:39:06;100233.53;;;-3.40;69.65
71126;BME280;58785;55.566;38.058;2023-02-13T04:41:31;100234.88;;;-3.30;69.23
71126;BME280;58785;55.566;38.058;2023-02-13T04:43:57;100220.19;;;-3.33;69.82
71126;BME280;58785;55.566;38.058;2023-02-13T04:46:23;100195.44;;;-3.44;69.48
71126;BME280;58785;55.566;38.058;2023-02-13T04:48:48;100208.31;;;-3.40;69.26
71126;BME280;58785;55.566;38.058;2023-02-13T04:51:14;100218.44;;;-3.32;69.14
71126;BME280;58785;55.566;38.058;2023-02-13T04:53:39;100206.44;;;-3.36;69.72
71126;BME280;58785;55.566;38.058;2023-02-13T04:56:05;100211.09;;;-3.23;68.88
71126;BME280;58785;55.566;38.058;2023-02-13T04:58:31;100200.63;;;-3.21;69.33
71126;BME280;58785;55.566;38.058;2023-02-13T05:00:56;100201.53;;;-3.22;69.23
71126;BME280;58785;55.566;38.058;2023-02-13T05:03:22;100213.50;;;-3.16;69.42
71126;BME280;58785;55.566;38.058;2023-02-13T05:05:47;100204.75;;;-3.15;69.93
71126;BME280;58785;55.566;38.058;2023-02-13T05:08:13;100196.81;;;-3.12;69.32
71126;BME280;58785;55.566;38.058;2023-02-13T05:10:39;100205.97;;;-3.02;69.43
71126;BME280;58785;55.566;38.058;2023-02-13T05:13:05;100193.63;;;-2.97;69.36
71126;BME280;58785;55.566;38.058;2023-02-13T05:15:31;100200.47;;;-2.95;69.34
71126;BME280;58785;55.566;38.058;2023-02-13T05:17:57;100190.88;;;-2.94;69.29
71126;BME280;58785;55.566;38.058;2023-02-13T05:20:22;100185.72;;;-2.96;69.75
71126;BME280;58785;55.566;38.058;2023-02-13T05:22:52;100171.06;;;-2.98;69.77
71126;BME280;58785;55.566;38.058;2023-02-13T05:25:39;100166.38;;;-2.90;69.37
71126;BME280;58785;55.566;38.058;2023-02-13T05:28:05;100161.88;;;-2.86;69.28
71126;BME280;58785;55.566;38.058;2023-02-13T05:30:54;100165.59;;;-2.70;69.26
71126;BME280;58785;55.566;38.058;2023-02-13T05:33:20;100146.34;;;-2.68;69.29
71126;BME280;58785;55.566;38.058;2023-02-13T05:35:46;100146.28;;;-2.66;69.47
71126;BME280;58785;55.566;38.058;2023-02-13T05:38:12;100143.81;;;-2.71;69.08
71126;BME280;58785;55.566;38.058;2023-02-13T05:40:38;100135.34;;;-2.76;69.08
71126;BME280;58785;55.566;38.058;2023-02-13T05:43:03;100146.34;;;-2.68;69.47
71126;BME280;58785;55.566;38.058;2023-02-13T05:45:29;100155.09;;;-2.69;69.66
71126;BME280;58785;55.566;38.058;2023-02-13T05:47:54;100136.34;;;-2.78;69.35
71126;BME280;58785;55.566;38.058;2023-02-13T05:50:20;100159.75;;;-2.77;69.49
71126;BME280;58785;55.566;38.058;2023-02-13T05:52:46;100158.59;;;-2.70;69.57
71126;BME280;58785;55.566;38.058;2023-02-13T05:55:11;100158.16;;;-2.59;69.29
71126;BME280;58785;55.566;38.058;2023-02-13T05:57:38;100154.34;;;-2.52;69.16
71126;BME280;58785;55.566;38.058;2023-02-13T06:00:04;100144.06;;;-2.55;69.12
71126;BME280;58785;55.566;38.058;2023-02-13T06:02:30;100135.38;;;-2.55;68.92
71126;BME280;58785;55.566;38.058;2023-02-13T06:04:56;100138.59;;;-2.49;69.34
71126;BME280;58785;55.566;38.058;2023-02-13T06:07:22;100137.34;;;-2.40;69.53
71126;BME280;58785;55.566;38.058;2023-02-13T06:09:47;100130.47;;;-2.43;69.63
71126;BME280;58785;55.566;38.058;2023-02-13T06:12:13;100140.59;;;-2.35;69.47
71126;BME280;58785;55.566;38.058;2023-02-13T06:14:38;100133.63;;;-2.35;69.58
71126;BME280;58785;55.566;38.058;2023-02-13T06:17:04;100130.75;;;-2.28;69.47
71126;BME280;58785;55.566;38.058;2023-02-13T06:19:29;100134.78;;;-2.21;68.88
71126;BME280;58785;55.566;38.058;2023-02-13T06:21:55;100136.06;;;-2.11;68.97
71126;BME280;58785;55.566;38.058;2023-02-13T06:24:21;100146.28;;;-2.05;69.06
71126;BME280;58785;55.566;38.058;2023-02-13T06:26:46;100138.03;;;-1.96;68.77
71126;BME280;58785;55.566;38.058;2023-02-13T06:29:12;100122.44;;;-1.97;68.42
71126;BME280;58785;55.566;38.058;2023-02-13T06:31:37;100118.19;;;-2.00;68.78
71126;BME280;58785;55.566;38.058;2023-02-13T06:34:03;100131.81;;;-1.93;68.60
71126;BME280;58785;55.566;38.058;2023-02-13T06:36:29;100138.47;;;-1.86;68.82
71126;BME280;58785;55.566;38.058;2023-02-13T06:38:55;100124.22;;;-1.79;68.96
71126;BME280;58785;55.566;38.058;2023-02-13T06:41:21;100121.03;;;-1.67;68.60
71126;BME280;58785;55.566;38.058;2023-02-13T06:43:46;100109.50;;;-1.63;68.07
71126;BME280;58785;55.566;38.058;2023-02-13T06:46:12;100116.25;;;-1.57;68.21
71126;BME280;58785;55.566;38.058;2023-02-13T06:48:37;100120.13;;;-1.47;68.51
71126;BME280;58785;55.566;38.058;2023-02-13T06:51:03;100107.75;;;-1.43;68.21
71126;BME280;58785;55.566;38.058;2023-02-13T06:53:29;100107.38;;;-1.36;67.92
71126;BME280;58785;55.566;38.058;2023-02-13T06:55:55;100110.84;;;-1.35;68.17
71126;BME280;58785;55.566;38.058;2023-02-13T06:58:22;100093.31;;;-1.33;68.00
71126;BME280;58785;55.566;38.058;2023-02-13T07:00:49;100093.53;;;-1.19;68.02
71126;BME280;58785;55.566;38.058;2023-02-13T07:03:15;100089.22;;;-1.20;68.00
71126;BME280;58785;55.566;38.058;2023-02-13T07:05:42;100085.22;;;-1.10;68.19
71126;BME280;58785;55.566;38.058;2023-02-13T07:08:10;100078.63;;;-1.00;67.86
71126;BME280;58785;55.566;38.058;2023-02-13T07:10:37;100075.69;;;-0.94;68.03
71126;BME280;58785;55.566;38.058;2023-02-13T07:13:03;100074.94;;;-0.78;68.01
71126;BME280;58785;55.566;38.058;2023-02-13T07:15:29;100078.38;;;-0.61;67.29
71126;BME280;58785;55.566;38.058;2023-02-13T07:17:55;100065.06;;;-0.56;67.10
71126;BME280;58785;55.566;38.058;2023-02-13T07:20:22;100068.53;;;-0.55;67.48
71126;BME280;58785;55.566;38.058;2023-02-13T07:22:48;100064.97;;;-0.54;67.84
71126;BME280;58785;55.566;38.058;2023-02-13T07:25:13;100041.41;;;-0.54;67.70
71126;BME280;58785;55.566;38.058;2023-02-13T07:27:39;100041.19;;;-0.50;67.83
71126;BME280;58785;55.566;38.058;2023-02-13T07:30:05;100052.34;;;-0.46;67.76
71126;BME280;58785;55.566;38.058;2023-02-13T07:32:31;100052.94;;;-0.41;67.71
71126;BME280;58785;55.566;38.058;2023-02-13T07:34:56;100052.72;;;-0.37;67.71
71126;BME280;58785;55.566;38.058;2023-02-13T07:37:22;100054.41;;;-0.36;67.81
71126;BME280;58785;55.566;38.058;2023-02-13T07:39:48;100039.09;;;-0.43;67.49
71126;BME280;58785;55.566;38.058;2023-02-13T07:42:13;100038.84;;;-0.39;67.91
71126;BME280;58785;55.566;38.058;2023-02-13T07:44:39;100041.00;;;-0.30;68.13
71126;BME280;58785;55.566;38.058;2023-02-13T07:47:05;100037.63;;;-0.16;67.41
71126;BME280;58785;55.566;38.058;2023-02-13T07:49:30;100036.22;;;-0.06;67.42
71126;BME280;58785;55.566;38.058;2023-02-13T07:51:56;100031.41;;;0.03;66.93
71126;BME280;58785;55.566;38.058;2023-02-13T07:54:25;100024.47;;;0.17;66.92
71126;BME280;58785;55.566;38.058;2023-02-13T07:56:51;100022.63;;;0.19;66.78
71126;BME280;58785;55.566;38.058;2023-02-13T07:59:16;100020.09;;;0.18;67.05
71126;BME280;58785;55.566;38.058;2023-02-13T08:01:42;100026.78;;;0.23;66.93
71126;BME280;58785;55.566;38.058;2023-02-13T08:04:07;100012.81;;;0.39;66.79
71126;BME280;58785;55.566;38.058;2023-02-13T08:06:33;100015.66;;;0.50;66.47
71126;BME280;58785;55.566;38.058;2023-02-13T08:08:59;100014.59;;;0.54;66.65
71126;BME280;58785;55.566;38.058;2023-02-13T08:11:43;100018.38;;;0.64;66.43
71126;BME280;58785;55.566;38.058;2023-02-13T08:14:22;100016.41;;;0.68;66.26
71126;BME280;58785;55.566;38.058;2023-02-13T08:16:48;100012.38;;;0.62;66.18
71126;BME280;58785;55.566;38.058;2023-02-13T08:19:14;100007.38;;;0.57;66.41
71126;BME280;58785;55.566;38.058;2023-02-13T08:21:40;100008.63;;;0.66;66.41
71126;BME280;58785;55.566;38.058;2023-02-13T08:24:05;100006.66;;;0.70;66.43
71126;BME280;58785;55.566;38.058;2023-02-13T08:26:31;99994.44;;;0.70;66.25
71126;BME280;58785;55.566;38.058;2023-02-13T08:28:57;99978.09;;;0.65;66.67
71126;BME280;58785;55.566;38.058;2023-02-13T08:31:23;99980.00;;;0.77;66.45
71126;BME280;58785;55.566;38.058;2023-02-13T08:33:49;99975.25;;;0.84;66.37
71126;BME280;58785;55.566;38.058;2023-02-13T08:36:14;99976.22;;;0.97;66.39
71126;BME280;58785;55.566;38.058;2023-02-13T08:38:40;99972.94;;;1.08;66.60
71126;BME280;58785;55.566;38.058;2023-02-13T08:41:05;99957.09;;;1.09;66.06
71126;BME280;58785;55.566;38.058;2023-02-13T08:43:31;99950.75;;;1.13;66.35
71126;BME280;58785;55.566;38.058;2023-02-13T08:45:58;99958.03;;;1.08;66.16
71126;BME280;58785;55.566;38.058;2023-02-13T08:48:25;99949.81;;;1.14;66.23
71126;BME280;58785;55.566;38.058;2023-02-13T08:50:50;99937.22;;;1.05;66.08
71126;BME280;58785;55.566;38.058;2023-02-13T08:53:16;99944.25;;;1.19;66.39
71126;BME280;58785;55.566;38.058;2023-02-13T08:55:41;99928.72;;;1.30;65.73
71126;BME280;58785;55.566;38.058;2023-02-13T08:58:07;99937.53;;;1.43;65.75
71126;BME280;58785;55.566;38.058;2023-02-13T09:00:32;99932.00;;;1.48;66.00
71126;BME280;58785;55.566;38.058;2023-02-13T09:03:02;99936.03;;;1.54;65.67
71126;BME280;58785;55.566;38.058;2023-02-13T09:05:28;99919.13;;;1.58;65.75
71126;BME280;58785;55.566;38.058;2023-02-13T09:07:59;99920.72;;;1.60;65.47
71126;BME280;58785;55.566;38.058;2023-02-13T09:10:24;99923.81;;;1.67;66.01
71126;BME280;58785;55.566;38.058;2023-02-13T09:12:53;99906.25;;;1.67;65.34
71126;BME280;58785;55.566;38.058;2023-02-13T09:15:18;99912.19;;;1.71;65.76
71126;BME280;58785;55.566;38.058;2023-02-13T09:17:44;99911.16;;;1.73;65.54
71126;BME280;58785;55.566;38.058;2023-02-13T09:20:10;99909.41;;;1.87;65.29
71126;BME280;58785;55.566;38.058;2023-02-13T09:22:41;99906.31;;;1.94;65.30
71126;BME280;58785;55.566;38.058;2023-02-13T09:25:07;99901.16;;;1.93;65.23
71126;BME280;58785;55.566;38.058;2023-02-13T09:27:33;99907.88;;;1.97;65.54
71126;BME280;58785;55.566;38.058;2023-02-13T09:30:00;99905.94;;;2.00;65.68
71126;BME280;58785;55.566;38.058;2023-02-13T09:32:26;99897.84;;;2.04;65.50
71126;BME280;58785;55.566;38.058;2023-02-13T09:34:52;99883.28;;;1.98;65.67
71126;BME280;58785;55.566;38.058;2023-02-13T09:37:18;99892.47;;;2.05;65.63
71126;BME280;58785;55.566;38.058;2023-02-13T09:39:44;99893.47;;;2.17;65.33
71126;BME280;58785;55.566;38.058;2023-02-13T09:42:25;99891.19;;;2.25;65.12
71126;BME280;58785;55.566;38.058;2023-02-13T09:44:57;99888.28;;;2.42;65.11
71126;BME280;58785;55.566;38.058;2023-02-13T09:47:50;99889.97;;;2.43;65.45
71126;BME280;58785;55.566;38.058;2023-02-13T09:50:29;99877.31;;;2.36;65.06
71126;BME280;58785;55.566;38.058;2023-02-13T09:52:57;99872.91;;;2.36;65.06
71126;BME280;58785;55.566;38.058;2023-02-13T09:55:31;99855.44;;;2.35;65.20
71126;BME280;58785;55.566;38.058;2023-02-13T10:00:47;99848.16;;;2.39;65.62
71126;BME280;58785;55.566;38.058;2023-02-13T10:03:27;99848.22;;;2.51;65.41
71126;BME280;58785;55.566;38.058;2023-02-13T10:06:42;99834.50;;;2.59;65.25
71126;BME280;58785;55.566;38.058;2023-02-13T10:09:16;99841.16;;;2.65;65.69
71126;BME280;58785;55.566;38.058;2023-02-13T10:12:27;99832.66;;;2.74;65.49
71126;BME280;58785;55.566;38.058;2023-02-13T10:15:05;99839.38;;;2.78;65.16
71126;BME280;58785;55.566;38.058;2023-02-13T10:17:41;99828.66;;;2.81;65.02
71126;BME280;58785;55.566;38.058;2023-02-13T10:22:55;99826.75;;;2.96;64.75
71126;BME280;58785;55.566;38.058;2023-02-13T10:25:41;99805.91;;;2.93;65.01
71126;BME280;58785;55.566;38.058;2023-02-13T10:28:13;99800.63;;;2.93;64.71
71126;BME280;58785;55.566;38.058;2023-02-13T10:30:52;99798.63;;;2.96;65.29
71126;BME280;58785;55.566;38.058;2023-02-13T10:33:25;99809.56;;;3.03;65.03
71126;BME280;58785;55.566;38.058;2023-02-13T10:36:00;99808.41;;;3.07;65.18
71126;BME280;58785;55.566;38.058;2023-02-13T10:38:29;99793.97;;;3.00;64.89
71126;BME280;58785;55.566;38.058;2023-02-13T10:57:28;99791.44;;;2.98;65.46
71126;BME280;58785;55.566;38.058;2023-02-13T11:02:30;99766.94;;;2.85;65.73
71126;BME280;58785;55.566;38.058;2023-02-13T11:07:39;99756.28;;;2.86;65.99
71126;BME280;58785;55.566;38.058;2023-02-13T11:10:17;99745.75;;;2.86;66.19
71126;BME280;58785;55.566;38.058;2023-02-13T11:12:44;99757.44;;;2.95;65.70
71126;BME280;58785;55.566;38.058;2023-02-13T11:15:39;99749.84;;;3.03;65.87
71126;BME280;58785;55.566;38.058;2023-02-13T11:18:18;99743.63;;;3.04;65.69
71126;BME280;58785;55.566;38.058;2023-02-13T11:20:45;99740.13;;;3.04;65.86
71126;BME280;58785;55.566;38.058;2023-02-13T11:26:05;99735.25;;;3.23;65.80
71126;BME280;58785;55.566;38.058;2023-02-13T11:28:38;99728.78;;;3.27;65.28
71126;BME280;58785;55.566;38.058;2023-02-13T11:33:46;99719.50;;;3.34;65.09
71126;BME280;58785;55.566;38.058;2023-02-13T11:36:15;99730.47;;;3.28;65.79
71126;BME280;58785;55.566;38.058;2023-02-13T11:38:41;99726.09;;;3.16;65.71
71126;BME280;58785;55.566;38.058;2023-02-13T11:41:14;99734.53;;;3.08;66.02
71126;BME280;58785;55.566;38.058;2023-02-13T11:43:48;99739.41;;;3.02;66.39
71126;BME280;58785;55.566;38.058;2023-02-13T11:46:23;99728.88;;;2.89;66.43
71126;BME280;58785;55.566;38.058;2023-02-13T11:49:01;99729.22;;;2.84;66.99
71126;BME280;58785;55.566;38.058;2023-02-13T11:51:38;99703.44;;;2.77;66.87
71126;BME280;58785;55.566;38.058;2023-02-13T11:54:05;99715.44;;;2.81;66.73
71126;BME280;58785;55.566;38.058;2023-02-13T11:56:56;99707.75;;;2.78;67.13
71126;BME280;58785;55.566;38.058;2023-02-13T11:59:23;99707.13;;;2.74;67.52
71126;BME280;58785;55.566;38.058;2023-02-13T12:02:16;99704.38;;;2.76;67.09
71126;BME280;58785;55.566;38.058;2023-02-13T12:04:43;99714.81;;;2.77;67.08
71126;BME280;58785;55.566;38.058;2023-02-13T12:07:35;99708.38;;;2.81;67.11
71126;BME280;58785;55.566;38.058;2023-02-13T12:15:27;99682.50;;;2.99;67.12
71126;BME280;58785;55.566;38.058;2023-02-13T12:20:44;99678.78;;;3.14;67.38
71126;BME280;58785;55.566;38.058;2023-02-13T12:25:52;99674.09;;;3.31;67.26
71126;BME280;58785;55.566;38.058;2023-02-13T12:36:20;99656.88;;;3.14;67.72
71126;BME280;58785;55.566;38.058;2023-02-13T12:47:31;99639.41;;;3.13;67.93
71126;BME280;58785;55.566;38.058;2023-02-13T12:50:19;99644.06;;;3.21;68.19
71126;BME280;58785;55.566;38.058;2023-02-13T12:58:19;99637.66;;;3.25;68.29
71126;BME280;58785;55.566;38.058;2023-02-13T13:00:55;99635.97;;;3.24;68.52
71126;BME280;58785;55.566;38.058;2023-02-13T13:06:48;99616.25;;;3.05;68.64
71126;BME280;58785;55.566;38.058;2023-02-13T13:10:11;99624.53;;;3.12;69.06
71126;BME280;58785;55.566;38.058;2023-02-13T13:17:59;99613.78;;;3.15;69.15
71126;BME280;58785;55.566;38.058;2023-02-13T13:20:42;99613.59;;;3.05;69.45
71126;BME280;58785;55.566;38.058;2023-02-13T13:23:36;99599.53;;;2.94;70.07
71126;BME280;58785;55.566;38.058;2023-02-13T13:26:35;99612.72;;;2.94;69.85
71126;BME280;58785;55.566;38.058;2023-02-13T13:29:26;99608.72;;;2.88;70.20
71126;BME280;58785;55.566;38.058;2023-02-13T13:31:58;99610.63;;;2.86;70.01
71126;BME280;58785;55.566;38.058;2023-02-13T13:34:30;99612.53;;;2.84;70.72
71126;BME280;58785;55.566;38.058;2023-02-13T13:37:08;99607.19;;;2.73;70.74
71126;BME280;58785;55.566;38.058;2023-02-13T13:39:49;99611.00;;;2.69;71.36
71126;BME280;58785;55.566;38.058;2023-02-13T13:42:52;99605.13;;;2.65;71.33
71126;BME280;58785;55.566;38.058;2023-02-13T13:50:49;99602.13;;;2.70;71.25
71126;BME280;58785;55.566;38.058;2023-02-13T13:53:16;99602.06;;;2.71;71.16
71126;BME280;58785;55.566;38.058;2023-02-13T13:58:39;99602.47;;;2.65;71.52
71126;BME280;58785;55.566;38.058;2023-02-13T14:06:20;99594.81;;;2.62;71.25
71126;BME280;58785;55.566;38.058;2023-02-13T14:08:58;99581.44;;;2.65;71.73
71126;BME280;58785;55.566;38.058;2023-02-13T14:13:52;99578.38;;;2.58;71.70
71126;BME280;58785;55.566;38.058;2023-02-13T14:16:38;99586.16;;;2.60;71.30
71126;BME280;58785;55.566;38.058;2023-02-13T14:19:05;99574.81;;;2.59;71.87
71126;BME280;58785;55.566;38.058;2023-02-13T14:21:45;99581.00;;;2.58;71.49
71126;BME280;58785;55.566;38.058;2023-02-13T14:24:11;99569.16;;;2.53;71.59
71126;BME280;58785;55.566;38.058;2023-02-13T14:26:38;99566.28;;;2.56;71.61
71126;BME280;58785;55.566;38.058;2023-02-13T14:29:27;99567.13;;;2.56;71.47
71126;BME280;58785;55.566;38.058;2023-02-13T14:31:58;99556.84;;;2.53;71.60
71126;BME280;58785;55.566;38.058;2023-02-13T14:34:29;99556.84;;;2.53;71.92
71126;BME280;58785;55.566;38.058;2023-02-13T14:39:42;99537.78;;;2.50;71.73
71126;BME280;58785;55.566;38.058;2023-02-13T14:42:25;99534.31;;;2.49;72.06
71126;BME280;58785;55.566;38.058;2023-02-13T14:44:58;99545.00;;;2.59;71.63
71126;BME280;58785;55.566;38.058;2023-02-13T14:47:39;99541.78;;;2.55;72.23
71126;BME280;58785;55.566;38.058;2023-02-13T14:50:15;99539.38;;;2.52;71.61
71126;BME280;58785;55.566;38.058;2023-02-13T14:52:45;99530.00;;;2.48;71.62
71126;BME280;58785;55.566;38.058;2023-02-13T14:55:27;99526.75;;;2.45;72.00
71126;BME280;58785;55.566;38.058;2023-02-13T14:58:15;99521.50;;;2.45;72.34
71126;BME280;58785;55.566;38.058;2023-02-13T15:00:52;99519.19;;;2.40;71.92
71126;BME280;58785;55.566;38.058;2023-02-13T15:03:43;99505.19;;;2.40;71.98
71126;BME280;58785;55.566;38.058;2023-02-13T15:06:55;99491.97;;;2.28;71.93
71126;BME280;58785;55.566;38.058;2023-02-13T15:09:05;99501.72;;;2.39;72.27
71126;BME280;58785;55.566;38.058;2023-02-13T15:11:41;99486.88;;;2.38;72.35
71126;BME280;58785;55.566;38.058;2023-02-13T15:14:42;99479.84;;;2.39;72.19
71126;BME280;58785;55.566;38.058;2023-02-13T15:17:21;99484.97;;;2.40;72.26
71126;BME280;58785;55.566;38.058;2023-02-13T15:19:51;99460.09;;;2.33;72.29
71126;BME280;58785;55.566;38.058;2023-02-13T15:22:30;99468.47;;;2.38;72.26
71126;BME280;58785;55.566;38.058;2023-02-13T15:24:57;99454.00;;;2.33;72.73